sensor_id;sensor_type;location;lat;lon;timestamp;temperature;humidity
78619;DHT22;67941;52.506;5.470;2023-06-19T00:00:08;22.30;53.40
78619;DHT22;67941;52.506;5.470;2023-06-19T00:02:39;22.30;53.50
78619;DHT22;67941;52.506;5.470;2023-06-19T00:05:08;22.30;53.50
78619;DHT22;67941;52.506;5.470;2023-06-19T00:07:37;22.30;53.60
78619;DHT22;67941;52.506;5.470;2023-06-19T00:10:06;22.30;53.60
78619;DHT22;67941;52.506;5.470;2023-06-19T00:12:36;22.30;53.60
78619;DHT22;67941;52.506;5.470;2023-06-19T00:15:09;22.30;53.70
78619;DHT22;67941;52.506;5.470;2023-06-19T00:17:38;22.30;53.70
78619;DHT22;67941;52.506;5.470;2023-06-19T00:20:07;22.40;53.70
78619;DHT22;67941;52.506;5.470;2023-06-19T00:22:36;22.30;53.70
78619;DHT22;67941;52.506;5.470;2023-06-19T00:25:06;22.40;53.70
78619;DHT22;67941;52.506;5.470;2023-06-19T00:27:35;22.40;53.70
78619;DHT22;67941;52.506;5.470;2023-06-19T00:30:09;22.40;53.70
78619;DHT22;67941;52.506;5.470;2023-06-19T00:32:38;22.40;53.70
78619;DHT22;67941;52.506;5.470;2023-06-19T00:35:12;22.40;53.80
78619;DHT22;67941;52.506;5.470;2023-06-19T00:37:42;22.50;53.80
78619;DHT22;67941;52.506;5.470;2023-06-19T00:40:26;22.50;53.80
78619;DHT22;67941;52.506;5.470;2023-06-19T00:42:55;22.50;53.90
78619;DHT22;67941;52.506;5.470;2023-06-19T00:45:27;22.50;53.80
78619;DHT22;67941;52.506;5.470;2023-06-19T00:47:57;22.50;53.80
78619;DHT22;67941;52.506;5.470;2023-06-19T00:53:12;22.50;53.90
78619;DHT22;67941;52.506;5.470;2023-06-19T00:55:42;22.50;53.90
78619;DHT22;67941;52.506;5.470;2023-06-19T00:58:11;22.50;53.90
78619;DHT22;67941;52.506;5.470;2023-06-19T01:00:43;22.50;53.90
78619;DHT22;67941;52.506;5.470;2023-06-19T01:03:12;22.50;53.90
78619;DHT22;67941;52.506;5.470;2023-06-19T01:05:42;22.50;53.90
78619;DHT22;67941;52.506;5.470;2023-06-19T01:08:17;22.50;54.00
78619;DHT22;67941;52.506;5.470;2023-06-19T01:10:53;22.50;53.90
78619;DHT22;67941;52.506;5.470;2023-06-19T01:13:28;22.50;54.00
78619;DHT22;67941;52.506;5.470;2023-06-19T01:16:03;22.50;54.00
78619;DHT22;67941;52.506;5.470;2023-06-19T01:18:34;22.50;54.10
78619;DHT22;67941;52.506;5.470;2023-06-19T01:21:10;22.50;54.00
78619;DHT22;67941;52.506;5.470;2023-06-19T01:23:42;22.50;54.10
78619;DHT22;67941;52.506;5.470;2023-06-19T01:26:11;22.50;54.10
78619;DHT22;67941;52.506;5.470;2023-06-19T01:28:42;22.50;54.20
78619;DHT22;67941;52.506;5.470;2023-06-19T01:31:13;22.50;54.20
78619;DHT22;67941;52.506;5.470;2023-06-19T01:33:45;22.50;54.20
78619;DHT22;67941;52.506;5.470;2023-06-19T01:36:16;22.50;54.20
78619;DHT22;67941;52.506;5.470;2023-06-19T01:38:49;22.50;54.30
78619;DHT22;67941;52.506;5.470;2023-06-19T01:41:19;22.50;54.40
78619;DHT22;67941;52.506;5.470;2023-06-19T01:43:49;22.50;54.50
78619;DHT22;67941;52.506;5.470;2023-06-19T01:46:19;22.40;54.50
78619;DHT22;67941;52.506;5.470;2023-06-19T01:48:48;22.40;54.50
78619;DHT22;67941;52.506;5.470;2023-06-19T01:51:17;22.40;54.60
78619;DHT22;67941;52.506;5.470;2023-06-19T01:53:49;22.30;54.70
78619;DHT22;67941;52.506;5.470;2023-06-19T01:56:18;22.20;54.80
78619;DHT22;67941;52.506;5.470;2023-06-19T01:58:50;22.10;54.90
78619;DHT22;67941;52.506;5.470;2023-06-19T02:01:21;22.00;55.00
78619;DHT22;67941;52.506;5.470;2023-06-19T02:03:50;21.90;55.10
78619;DHT22;67941;52.506;5.470;2023-06-19T02:06:19;21.90;55.20
78619;DHT22;67941;52.506;5.470;2023-06-19T02:08:50;21.70;55.40
78619;DHT22;67941;52.506;5.470;2023-06-19T02:11:19;21.70;55.60
78619;DHT22;67941;52.506;5.470;2023-06-19T02:13:48;21.50;55.70
78619;DHT22;67941;52.506;5.470;2023-06-19T02:16:17;21.50;55.90
78619;DHT22;67941;52.506;5.470;2023-06-19T02:18:48;21.40;56.10
78619;DHT22;67941;52.506;5.470;2023-06-19T02:21:17;21.30;56.20
78619;DHT22;67941;52.506;5.470;2023-06-19T02:23:46;21.20;56.40
78619;DHT22;67941;52.506;5.470;2023-06-19T02:26:18;21.10;56.70
78619;DHT22;67941;52.506;5.470;2023-06-19T02:28:47;21.00;57.00
78619;DHT22;67941;52.506;5.470;2023-06-19T02:31:16;20.90;56.90
78619;DHT22;67941;52.506;5.470;2023-06-19T02:33:45;20.90;56.90
78619;DHT22;67941;52.506;5.470;2023-06-19T02:36:14;20.80;57.10
78619;DHT22;67941;52.506;5.470;2023-06-19T02:38:45;20.70;57.40
78619;DHT22;67941;52.506;5.470;2023-06-19T02:41:17;20.60;57.60
78619;DHT22;67941;52.506;5.470;2023-06-19T02:43:46;20.50;57.70
78619;DHT22;67941;52.506;5.470;2023-06-19T02:46:15;20.50;58.00
78619;DHT22;67941;52.506;5.470;2023-06-19T02:48:44;20.50;58.10
78619;DHT22;67941;52.506;5.470;2023-06-19T02:51:13;20.50;58.30
78619;DHT22;67941;52.506;5.470;2023-06-19T02:53:42;20.50;58.40
78619;DHT22;67941;52.506;5.470;2023-06-19T02:56:11;20.50;58.50
78619;DHT22;67941;52.506;5.470;2023-06-19T02:58:42;20.50;58.70
78619;DHT22;67941;52.506;5.470;2023-06-19T03:01:11;20.50;58.80
78619;DHT22;67941;52.506;5.470;2023-06-19T03:03:40;20.50;58.90
78619;DHT22;67941;52.506;5.470;2023-06-19T03:06:09;20.60;59.00
78619;DHT22;67941;52.506;5.470;2023-06-19T03:08:39;20.60;59.10
78619;DHT22;67941;52.506;5.470;2023-06-19T03:11:08;20.70;59.20
78619;DHT22;67941;52.506;5.470;2023-06-19T03:13:47;20.70;59.20
78619;DHT22;67941;52.506;5.470;2023-06-19T03:16:18;20.80;59.40
78619;DHT22;67941;52.506;5.470;2023-06-19T03:18:48;20.80;59.40
78619;DHT22;67941;52.506;5.470;2023-06-19T03:21:18;20.80;59.60
78619;DHT22;67941;52.506;5.470;2023-06-19T03:23:49;20.90;59.70
78619;DHT22;67941;52.506;5.470;2023-06-19T03:26:20;20.90;59.70
78619;DHT22;67941;52.506;5.470;2023-06-19T03:28:53;20.90;59.80
78619;DHT22;67941;52.506;5.470;2023-06-19T03:31:24;20.90;60.00
78619;DHT22;67941;52.506;5.470;2023-06-19T03:33:53;21.00;60.10
78619;DHT22;67941;52.506;5.470;2023-06-19T03:36:23;21.00;60.20
78619;DHT22;67941;52.506;5.470;2023-06-19T03:38:53;21.00;60.20
78619;DHT22;67941;52.506;5.470;2023-06-19T03:41:27;21.00;60.30
78619;DHT22;67941;52.506;5.470;2023-06-19T03:43:58;21.00;60.40
78619;DHT22;67941;52.506;5.470;2023-06-19T03:46:28;21.00;60.50
78619;DHT22;67941;52.506;5.470;2023-06-19T03:48:57;21.00;60.60
78619;DHT22;67941;52.506;5.470;2023-06-19T03:51:28;21.00;60.60
78619;DHT22;67941;52.506;5.470;2023-06-19T03:53:57;21.10;60.70
78619;DHT22;67941;52.506;5.470;2023-06-19T03:56:27;21.00;60.80
78619;DHT22;67941;52.506;5.470;2023-06-19T03:58:58;21.10;60.80
78619;DHT22;67941;52.506;5.470;2023-06-19T04:01:27;21.10;61.00
78619;DHT22;67941;52.506;5.470;2023-06-19T04:03:56;21.10;61.00
78619;DHT22;67941;52.506;5.470;2023-06-19T04:06:25;21.10;61.10
78619;DHT22;67941;52.506;5.470;2023-06-19T04:08:54;21.10;61.20
78619;DHT22;67941;52.506;5.470;2023-06-19T04:11:23;21.10;61.30
78619;DHT22;67941;52.506;5.470;2023-06-19T04:13:52;21.10;61.50
78619;DHT22;67941;52.506;5.470;2023-06-19T04:16:23;21.10;61.70
78619;DHT22;67941;52.506;5.470;2023-06-19T04:18:52;21.00;61.90
78619;DHT22;67941;52.506;5.470;2023-06-19T04:21:20;21.00;62.00
78619;DHT22;67941;52.506;5.470;2023-06-19T04:23:50;21.00;62.10
78619;DHT22;67941;52.506;5.470;2023-06-19T04:26:19;21.00;62.20
78619;DHT22;67941;52.506;5.470;2023-06-19T04:28:48;21.00;62.30
78619;DHT22;67941;52.506;5.470;2023-06-19T04:31:16;21.00;62.40
78619;DHT22;67941;52.506;5.470;2023-06-19T04:33:49;20.90;62.60
78619;DHT22;67941;52.506;5.470;2023-06-19T04:36:20;20.90;62.70
78619;DHT22;67941;52.506;5.470;2023-06-19T04:38:49;20.90;62.70
78619;DHT22;67941;52.506;5.470;2023-06-19T04:41:19;20.90;62.90
78619;DHT22;67941;52.506;5.470;2023-06-19T04:43:48;20.90;63.00
78619;DHT22;67941;52.506;5.470;2023-06-19T04:46:17;20.80;63.10
78619;DHT22;67941;52.506;5.470;2023-06-19T04:48:49;20.60;63.30
78619;DHT22;67941;52.506;5.470;2023-06-19T04:51:18;20.50;63.50
78619;DHT22;67941;52.506;5.470;2023-06-19T04:53:47;20.40;63.80
78619;DHT22;67941;52.506;5.470;2023-06-19T04:56:16;20.30;64.00
78619;DHT22;67941;52.506;5.470;2023-06-19T04:58:45;20.10;64.30
78619;DHT22;67941;52.506;5.470;2023-06-19T05:01:15;20.00;64.60
78619;DHT22;67941;52.506;5.470;2023-06-19T05:03:51;19.90;64.90
78619;DHT22;67941;52.506;5.470;2023-06-19T05:06:20;19.80;65.30
78619;DHT22;67941;52.506;5.470;2023-06-19T05:08:49;19.70;65.60
78619;DHT22;67941;52.506;5.470;2023-06-19T05:11:18;19.70;65.80
78619;DHT22;67941;52.506;5.470;2023-06-19T05:13:47;19.60;66.00
78619;DHT22;67941;52.506;5.470;2023-06-19T05:16:15;19.50;66.40
78619;DHT22;67941;52.506;5.470;2023-06-19T05:18:46;19.50;66.50
78619;DHT22;67941;52.506;5.470;2023-06-19T05:21:17;19.40;66.70
78619;DHT22;67941;52.506;5.470;2023-06-19T05:23:46;19.40;67.00
78619;DHT22;67941;52.506;5.470;2023-06-19T05:26:16;19.30;67.10
78619;DHT22;67941;52.506;5.470;2023-06-19T05:28:45;19.30;67.20
78619;DHT22;67941;52.506;5.470;2023-06-19T05:31:14;19.20;67.40
78619;DHT22;67941;52.506;5.470;2023-06-19T05:33:44;19.20;67.50
78619;DHT22;67941;52.506;5.470;2023-06-19T05:36:13;19.20;67.70
78619;DHT22;67941;52.506;5.470;2023-06-19T05:38:44;19.20;67.80
78619;DHT22;67941;52.506;5.470;2023-06-19T05:41:14;19.20;67.90
78619;DHT22;67941;52.506;5.470;2023-06-19T05:43:44;19.30;68.00
78619;DHT22;67941;52.506;5.470;2023-06-19T05:46:13;19.30;68.10
78619;DHT22;67941;52.506;5.470;2023-06-19T05:48:41;19.30;68.10
78619;DHT22;67941;52.506;5.470;2023-06-19T05:51:13;19.40;68.10
78619;DHT22;67941;52.506;5.470;2023-06-19T05:53:45;19.40;68.20
78619;DHT22;67941;52.506;5.470;2023-06-19T05:56:15;19.40;68.30
78619;DHT22;67941;52.506;5.470;2023-06-19T05:58:44;19.40;68.30
78619;DHT22;67941;52.506;5.470;2023-06-19T06:01:12;19.40;68.30
78619;DHT22;67941;52.506;5.470;2023-06-19T06:03:43;19.50;68.40
78619;DHT22;67941;52.506;5.470;2023-06-19T06:06:12;19.50;68.40
78619;DHT22;67941;52.506;5.470;2023-06-19T06:08:43;19.50;68.40
78619;DHT22;67941;52.506;5.470;2023-06-19T06:11:12;19.50;68.50
78619;DHT22;67941;52.506;5.470;2023-06-19T06:13:41;19.50;68.40
78619;DHT22;67941;52.506;5.470;2023-06-19T06:16:10;19.50;68.50
78619;DHT22;67941;52.506;5.470;2023-06-19T06:18:40;19.50;68.40
78619;DHT22;67941;52.506;5.470;2023-06-19T06:21:09;19.50;68.50
78619;DHT22;67941;52.506;5.470;2023-06-19T06:23:40;19.60;68.50
78619;DHT22;67941;52.506;5.470;2023-06-19T06:26:13;19.70;68.50
78619;DHT22;67941;52.506;5.470;2023-06-19T06:28:42;19.70;68.50
78619;DHT22;67941;52.506;5.470;2023-06-19T06:31:10;19.70;68.50
78619;DHT22;67941;52.506;5.470;2023-06-19T06:33:42;19.80;68.50
78619;DHT22;67941;52.506;5.470;2023-06-19T06:36:14;19.90;68.50
78619;DHT22;67941;52.506;5.470;2023-06-19T06:38:42;19.90;68.50
78619;DHT22;67941;52.506;5.470;2023-06-19T06:41:14;20.00;68.40
78619;DHT22;67941;52.506;5.470;2023-06-19T06:43:43;20.00;68.50
78619;DHT22;67941;52.506;5.470;2023-06-19T06:46:11;20.20;68.30
78619;DHT22;67941;52.506;5.470;2023-06-19T06:48:40;20.30;68.20
78619;DHT22;67941;52.506;5.470;2023-06-19T06:51:09;20.30;68.10
78619;DHT22;67941;52.506;5.470;2023-06-19T06:53:41;20.40;68.00
78619;DHT22;67941;52.506;5.470;2023-06-19T06:56:11;20.50;67.90
78619;DHT22;67941;52.506;5.470;2023-06-19T06:58:42;20.50;67.90
78619;DHT22;67941;52.506;5.470;2023-06-19T07:01:12;20.50;67.90
78619;DHT22;67941;52.506;5.470;2023-06-19T07:03:41;20.50;67.90
78619;DHT22;67941;52.506;5.470;2023-06-19T07:06:10;20.50;67.90
78619;DHT22;67941;52.506;5.470;2023-06-19T07:08:39;20.60;67.80
78619;DHT22;67941;52.506;5.470;2023-06-19T07:11:08;20.70;67.80
78619;DHT22;67941;52.506;5.470;2023-06-19T07:13:37;20.80;67.80
78619;DHT22;67941;52.506;5.470;2023-06-19T07:16:09;20.90;67.90
78619;DHT22;67941;52.506;5.470;2023-06-19T07:18:38;21.10;67.70
78619;DHT22;67941;52.506;5.470;2023-06-19T07:21:11;21.10;67.60
78619;DHT22;67941;52.506;5.470;2023-06-19T07:23:41;21.30;67.50
78619;DHT22;67941;52.506;5.470;2023-06-19T07:26:11;21.30;67.30
78619;DHT22;67941;52.506;5.470;2023-06-19T07:28:40;21.30;67.20
78619;DHT22;67941;52.506;5.470;2023-06-19T07:31:11;21.30;67.20
78619;DHT22;67941;52.506;5.470;2023-06-19T07:33:40;21.20;67.20
78619;DHT22;67941;52.506;5.470;2023-06-19T07:36:09;21.20;67.30
78619;DHT22;67941;52.506;5.470;2023-06-19T07:38:40;21.20;67.30
78619;DHT22;67941;52.506;5.470;2023-06-19T07:41:09;21.30;67.30
78619;DHT22;67941;52.506;5.470;2023-06-19T07:43:38;21.30;67.20
78619;DHT22;67941;52.506;5.470;2023-06-19T07:46:07;21.40;67.20
78619;DHT22;67941;52.506;5.470;2023-06-19T07:48:38;21.40;67.20
78619;DHT22;67941;52.506;5.470;2023-06-19T07:51:07;21.50;67.10
78619;DHT22;67941;52.506;5.470;2023-06-19T07:53:36;21.50;66.90
78619;DHT22;67941;52.506;5.470;2023-06-19T07:56:05;21.50;66.80
78619;DHT22;67941;52.506;5.470;2023-06-19T07:58:35;21.50;66.60
78619;DHT22;67941;52.506;5.470;2023-06-19T08:01:03;21.40;66.60
78619;DHT22;67941;52.506;5.470;2023-06-19T08:03:32;21.40;66.70
78619;DHT22;67941;52.506;5.470;2023-06-19T08:06:04;21.40;66.80
78619;DHT22;67941;52.506;5.470;2023-06-19T08:08:33;21.40;66.70
78619;DHT22;67941;52.506;5.470;2023-06-19T08:11:01;21.40;66.70
78619;DHT22;67941;52.506;5.470;2023-06-19T08:13:30;21.40;66.50
78619;DHT22;67941;52.506;5.470;2023-06-19T08:15:59;21.40;66.40
78619;DHT22;67941;52.506;5.470;2023-06-19T08:18:28;21.30;66.20
78619;DHT22;67941;52.506;5.470;2023-06-19T08:20:56;21.30;66.20
78619;DHT22;67941;52.506;5.470;2023-06-19T08:23:28;21.20;66.20
78619;DHT22;67941;52.506;5.470;2023-06-19T08:25:57;21.10;66.20
78619;DHT22;67941;52.506;5.470;2023-06-19T08:28:26;21.10;66.30
78619;DHT22;67941;52.506;5.470;2023-06-19T08:30:54;21.10;66.20
78619;DHT22;67941;52.506;5.470;2023-06-19T08:33:24;21.10;66.30
78619;DHT22;67941;52.506;5.470;2023-06-19T08:35:53;21.20;66.40
78619;DHT22;67941;52.506;5.470;2023-06-19T08:38:22;21.40;66.40
78619;DHT22;67941;52.506;5.470;2023-06-19T08:40:53;21.50;66.40
78619;DHT22;67941;52.506;5.470;2023-06-19T08:43:22;21.80;66.30
78619;DHT22;67941;52.506;5.470;2023-06-19T08:46:09;22.00;66.10
78619;DHT22;67941;52.506;5.470;2023-06-19T08:48:39;22.10;65.80
78619;DHT22;67941;52.506;5.470;2023-06-19T08:51:07;22.20;65.80
78619;DHT22;67941;52.506;5.470;2023-06-19T08:53:45;22.30;65.70
78619;DHT22;67941;52.506;5.470;2023-06-19T08:56:19;22.40;65.60
78619;DHT22;67941;52.506;5.470;2023-06-19T08:58:50;22.50;65.50
78619;DHT22;67941;52.506;5.470;2023-06-19T09:01:19;22.60;65.40
78619;DHT22;67941;52.506;5.470;2023-06-19T09:03:49;22.70;65.30
78619;DHT22;67941;52.506;5.470;2023-06-19T09:06:18;22.90;65.10
78619;DHT22;67941;52.506;5.470;2023-06-19T09:08:57;22.90;64.90
78619;DHT22;67941;52.506;5.470;2023-06-19T09:11:29;22.90;64.70
78619;DHT22;67941;52.506;5.470;2023-06-19T09:13:58;22.90;64.70
78619;DHT22;67941;52.506;5.470;2023-06-19T09:16:37;22.80;64.70
78619;DHT22;67941;52.506;5.470;2023-06-19T09:19:07;22.80;64.70
78619;DHT22;67941;52.506;5.470;2023-06-19T09:21:36;23.00;65.00
78619;DHT22;67941;52.506;5.470;2023-06-19T09:24:07;23.20;64.90
78619;DHT22;67941;52.506;5.470;2023-06-19T09:26:39;23.50;64.70
78619;DHT22;67941;52.506;5.470;2023-06-19T09:29:12;23.80;64.50
78619;DHT22;67941;52.506;5.470;2023-06-19T09:31:42;24.00;64.10
78619;DHT22;67941;52.506;5.470;2023-06-19T09:34:11;24.00;63.90
78619;DHT22;67941;52.506;5.470;2023-06-19T09:36:39;24.10;63.90
78619;DHT22;67941;52.506;5.470;2023-06-19T09:39:09;24.20;63.80
78619;DHT22;67941;52.506;5.470;2023-06-19T09:41:41;24.40;63.60
78619;DHT22;67941;52.506;5.470;2023-06-19T09:44:11;24.40;63.40
78619;DHT22;67941;52.506;5.470;2023-06-19T09:46:41;24.50;63.40
78619;DHT22;67941;52.506;5.470;2023-06-19T09:49:14;24.50;63.20
78619;DHT22;67941;52.506;5.470;2023-06-19T09:51:44;24.50;63.10
78619;DHT22;67941;52.506;5.470;2023-06-19T09:54:14;24.60;63.20
78619;DHT22;67941;52.506;5.470;2023-06-19T09:56:47;24.70;63.00
78619;DHT22;67941;52.506;5.470;2023-06-19T09:59:17;24.70;62.80
78619;DHT22;67941;52.506;5.470;2023-06-19T10:01:49;24.70;62.70
78619;DHT22;67941;52.506;5.470;2023-06-19T10:04:18;24.80;62.60
78619;DHT22;67941;52.506;5.470;2023-06-19T10:06:47;24.80;62.50
78619;DHT22;67941;52.506;5.470;2023-06-19T10:09:16;24.90;62.60
78619;DHT22;67941;52.506;5.470;2023-06-19T10:11:51;25.00;62.30
78619;DHT22;67941;52.506;5.470;2023-06-19T10:14:21;25.00;62.20
78619;DHT22;67941;52.506;5.470;2023-06-19T10:16:51;25.00;62.10
78619;DHT22;67941;52.506;5.470;2023-06-19T10:19:21;25.00;62.00
78619;DHT22;67941;52.506;5.470;2023-06-19T10:21:52;25.00;61.90
78619;DHT22;67941;52.506;5.470;2023-06-19T10:24:25;25.20;61.90
78619;DHT22;67941;52.506;5.470;2023-06-19T10:27:00;25.30;61.80
78619;DHT22;67941;52.506;5.470;2023-06-19T10:29:38;25.60;61.70
78619;DHT22;67941;52.506;5.470;2023-06-19T10:32:07;25.80;61.50
78619;DHT22;67941;52.506;5.470;2023-06-19T10:34:36;25.90;61.30
78619;DHT22;67941;52.506;5.470;2023-06-19T10:37:05;26.00;61.00
78619;DHT22;67941;52.506;5.470;2023-06-19T10:39:34;25.90;60.90
78619;DHT22;67941;52.506;5.470;2023-06-19T10:42:08;25.80;60.80
78619;DHT22;67941;52.506;5.470;2023-06-19T10:44:37;25.80;60.80
78619;DHT22;67941;52.506;5.470;2023-06-19T10:47:08;25.60;60.80
78619;DHT22;67941;52.506;5.470;2023-06-19T10:49:36;25.60;60.70
78619;DHT22;67941;52.506;5.470;2023-06-19T10:52:06;25.50;60.60
78619;DHT22;67941;52.506;5.470;2023-06-19T10:54:35;25.30;60.70
78619;DHT22;67941;52.506;5.470;2023-06-19T10:57:07;25.20;60.70
78619;DHT22;67941;52.506;5.470;2023-06-19T10:59:36;25.00;60.70
78619;DHT22;67941;52.506;5.470;2023-06-19T11:02:06;24.90;60.80
78619;DHT22;67941;52.506;5.470;2023-06-19T11:04:37;24.70;60.80
78619;DHT22;67941;52.506;5.470;2023-06-19T11:07:07;24.60;60.90
78619;DHT22;67941;52.506;5.470;2023-06-19T11:09:36;24.50;60.90
78619;DHT22;67941;52.506;5.470;2023-06-19T11:12:09;24.40;60.90
78619;DHT22;67941;52.506;5.470;2023-06-19T11:14:38;24.20;60.90
78619;DHT22;67941;52.506;5.470;2023-06-19T11:17:08;24.20;61.00
78619;DHT22;67941;52.506;5.470;2023-06-19T11:19:37;24.20;60.90
78619;DHT22;67941;52.506;5.470;2023-06-19T11:22:09;24.20;60.90
78619;DHT22;67941;52.506;5.470;2023-06-19T11:24:43;24.20;60.90
78619;DHT22;67941;52.506;5.470;2023-06-19T11:27:20;24.20;60.80
78619;DHT22;67941;52.506;5.470;2023-06-19T11:29:55;24.20;60.80
78619;DHT22;67941;52.506;5.470;2023-06-19T11:32:31;24.20;60.80
78619;DHT22;67941;52.506;5.470;2023-06-19T11:35:05;24.20;60.90
78619;DHT22;67941;52.506;5.470;2023-06-19T11:37:35;24.40;60.90
78619;DHT22;67941;52.506;5.470;2023-06-19T11:40:05;24.50;60.90
78619;DHT22;67941;52.506;5.470;2023-06-19T11:42:49;24.70;60.60
78619;DHT22;67941;52.506;5.470;2023-06-19T11:45:18;24.80;60.30
78619;DHT22;67941;52.506;5.470;2023-06-19T11:47:47;24.80;60.20
78619;DHT22;67941;52.506;5.470;2023-06-19T11:50:17;24.80;60.20
78619;DHT22;67941;52.506;5.470;2023-06-19T11:52:47;24.80;60.10
78619;DHT22;67941;52.506;5.470;2023-06-19T11:55:16;24.80;60.00
78619;DHT22;67941;52.506;5.470;2023-06-19T11:57:47;24.80;60.00
78619;DHT22;67941;52.506;5.470;2023-06-19T12:00:17;24.80;60.00
78619;DHT22;67941;52.506;5.470;2023-06-19T12:02:46;24.80;60.00
78619;DHT22;67941;52.506;5.470;2023-06-19T12:05:15;24.80;59.90
78619;DHT22;67941;52.506;5.470;2023-06-19T12:07:44;24.70;59.80
78619;DHT22;67941;52.506;5.470;2023-06-19T12:10:13;24.60;59.90
78619;DHT22;67941;52.506;5.470;2023-06-19T12:12:42;24.60;59.90
78619;DHT22;67941;52.506;5.470;2023-06-19T12:15:14;24.50;59.80
78619;DHT22;67941;52.506;5.470;2023-06-19T12:17:43;24.40;59.80
78619;DHT22;67941;52.506;5.470;2023-06-19T12:20:12;24.40;59.70
78619;DHT22;67941;52.506;5.470;2023-06-19T12:22:41;24.40;59.70
78619;DHT22;67941;52.506;5.470;2023-06-19T12:25:11;24.30;59.60
78619;DHT22;67941;52.506;5.470;2023-06-19T12:27:39;24.20;59.50
78619;DHT22;67941;52.506;5.470;2023-06-19T12:30:09;24.20;59.50
78619;DHT22;67941;52.506;5.470;2023-06-19T12:32:41;24.20;59.60
78619;DHT22;67941;52.506;5.470;2023-06-19T12:35:10;24.10;59.50
78619;DHT22;67941;52.506;5.470;2023-06-19T12:37:39;24.10;59.50
78619;DHT22;67941;52.506;5.470;2023-06-19T12:40:09;24.10;59.50
78619;DHT22;67941;52.506;5.470;2023-06-19T12:42:38;24.10;59.40
78619;DHT22;67941;52.506;5.470;2023-06-19T12:45:08;24.20;59.40
78619;DHT22;67941;52.506;5.470;2023-06-19T12:47:37;24.20;59.30
78619;DHT22;67941;52.506;5.470;2023-06-19T12:50:09;24.20;59.10
78619;DHT22;67941;52.506;5.470;2023-06-19T12:52:39;24.20;59.10
78619;DHT22;67941;52.506;5.470;2023-06-19T12:55:08;24.30;59.10
78619;DHT22;67941;52.506;5.470;2023-06-19T12:57:37;24.40;59.00
78619;DHT22;67941;52.506;5.470;2023-06-19T13:00:09;24.40;58.90
78619;DHT22;67941;52.506;5.470;2023-06-19T13:02:39;24.40;58.80
78619;DHT22;67941;52.506;5.470;2023-06-19T13:05:11;24.50;58.80
78619;DHT22;67941;52.506;5.470;2023-06-19T13:07:40;24.60;58.70
78619;DHT22;67941;52.506;5.470;2023-06-19T13:10:10;24.60;58.70
78619;DHT22;67941;52.506;5.470;2023-06-19T13:12:38;24.60;58.70
78619;DHT22;67941;52.506;5.470;2023-06-19T13:15:08;24.70;58.60
78619;DHT22;67941;52.506;5.470;2023-06-19T13:17:37;24.80;58.50
78619;DHT22;67941;52.506;5.470;2023-06-19T13:20:07;24.80;58.50
78619;DHT22;67941;52.506;5.470;2023-06-19T13:22:39;24.90;58.40
78619;DHT22;67941;52.506;5.470;2023-06-19T13:25:08;24.90;58.30
78619;DHT22;67941;52.506;5.470;2023-06-19T13:27:37;24.90;58.20
78619;DHT22;67941;52.506;5.470;2023-06-19T13:30:07;24.90;58.20
78619;DHT22;67941;52.506;5.470;2023-06-19T13:32:37;24.90;58.10
78619;DHT22;67941;52.506;5.470;2023-06-19T13:35:07;24.80;58.10
78619;DHT22;67941;52.506;5.470;2023-06-19T13:37:40;24.80;58.10
78619;DHT22;67941;52.506;5.470;2023-06-19T13:40:09;24.80;58.00
78619;DHT22;67941;52.506;5.470;2023-06-19T13:42:38;24.90;57.90
78619;DHT22;67941;52.506;5.470;2023-06-19T13:45:07;24.90;57.80
78619;DHT22;67941;52.506;5.470;2023-06-19T13:47:37;25.00;57.80
78619;DHT22;67941;52.506;5.470;2023-06-19T13:50:07;25.00;57.80
78619;DHT22;67941;52.506;5.470;2023-06-19T13:52:40;25.00;57.70
78619;DHT22;67941;52.506;5.470;2023-06-19T13:55:09;25.00;57.60
78619;DHT22;67941;52.506;5.470;2023-06-19T13:57:39;25.00;57.50
78619;DHT22;67941;52.506;5.470;2023-06-19T14:00:10;24.90;57.50
78619;DHT22;67941;52.506;5.470;2023-06-19T14:02:40;24.80;57.50
78619;DHT22;67941;52.506;5.470;2023-06-19T14:05:10;24.80;57.60
78619;DHT22;67941;52.506;5.470;2023-06-19T14:07:43;24.80;57.50
78619;DHT22;67941;52.506;5.470;2023-06-19T14:10:12;24.80;57.50
78619;DHT22;67941;52.506;5.470;2023-06-19T14:12:41;24.90;57.50
78619;DHT22;67941;52.506;5.470;2023-06-19T14:15:10;24.90;57.40
78619;DHT22;67941;52.506;5.470;2023-06-19T14:17:38;25.00;57.40
78619;DHT22;67941;52.506;5.470;2023-06-19T14:20:10;25.00;57.20
78619;DHT22;67941;52.506;5.470;2023-06-19T14:22:41;25.00;57.10
78619;DHT22;67941;52.506;5.470;2023-06-19T14:25:10;24.90;57.10
78619;DHT22;67941;52.506;5.470;2023-06-19T14:27:39;24.90;57.10
78619;DHT22;67941;52.506;5.470;2023-06-19T14:30:08;24.80;57.00
78619;DHT22;67941;52.506;5.470;2023-06-19T14:32:37;24.80;57.00
78619;DHT22;67941;52.506;5.470;2023-06-19T14:35:07;24.70;57.00
78619;DHT22;67941;52.506;5.470;2023-06-19T14:37:36;24.70;57.00
78619;DHT22;67941;52.506;5.470;2023-06-19T14:40:09;24.80;57.00
78619;DHT22;67941;52.506;5.470;2023-06-19T14:42:38;24.80;57.00
78619;DHT22;67941;52.506;5.470;2023-06-19T14:45:08;25.00;57.10
78619;DHT22;67941;52.506;5.470;2023-06-19T14:47:37;25.00;57.00
78619;DHT22;67941;52.506;5.470;2023-06-19T14:50:07;25.00;56.90
78619;DHT22;67941;52.506;5.470;2023-06-19T14:52:36;25.10;56.80
78619;DHT22;67941;52.506;5.470;2023-06-19T14:55:08;25.10;56.80
78619;DHT22;67941;52.506;5.470;2023-06-19T14:57:37;25.00;56.70
78619;DHT22;67941;52.506;5.470;2023-06-19T15:00:07;25.00;56.80
78619;DHT22;67941;52.506;5.470;2023-06-19T15:02:36;25.00;56.90
78619;DHT22;67941;52.506;5.470;2023-06-19T15:05:06;25.00;56.90
78619;DHT22;67941;52.506;5.470;2023-06-19T15:07:35;25.00;56.70
78619;DHT22;67941;52.506;5.470;2023-06-19T15:10:07;25.00;56.70
78619;DHT22;67941;52.506;5.470;2023-06-19T15:12:36;25.00;56.60
78619;DHT22;67941;52.506;5.470;2023-06-19T15:15:06;25.00;56.50
78619;DHT22;67941;52.506;5.470;2023-06-19T15:17:35;25.00;56.60
78619;DHT22;67941;52.506;5.470;2023-06-19T15:20:06;25.00;56.50
78619;DHT22;67941;52.506;5.470;2023-06-19T15:22:35;25.00;56.50
78619;DHT22;67941;52.506;5.470;2023-06-19T15:25:07;25.00;56.50
78619;DHT22;67941;52.506;5.470;2023-06-19T15:27:36;25.10;56.50
78619;DHT22;67941;52.506;5.470;2023-06-19T15:30:06;25.10;56.50
78619;DHT22;67941;52.506;5.470;2023-06-19T15:32:35;25.00;56.50
78619;DHT22;67941;52.506;5.470;2023-06-19T15:35:05;25.00;56.40
78619;DHT22;67941;52.506;5.470;2023-06-19T15:37:34;24.90;56.50
78619;DHT22;67941;52.506;5.470;2023-06-19T15:40:03;24.90;56.40
78619;DHT22;67941;52.506;5.470;2023-06-19T15:42:35;25.00;56.40
78619;DHT22;67941;52.506;5.470;2023-06-19T15:45:06;25.00;56.40
78619;DHT22;67941;52.506;5.470;2023-06-19T15:47:36;25.00;56.30
78619;DHT22;67941;52.506;5.470;2023-06-19T15:50:06;25.00;56.20